Time;durP1;ratioP1;P1;durP2;ratioP2;P2;SDS_P1;SDS_P2;PMS_P1;PMS_P2;Temp;Humidity;BMP_temperature;BMP_pressure;BME280_temperature;BME280_humidity;BME280_pressure;Samples;Min_cycle;Max_cycle;Signal;HPM_P1;HPM_P2
2022/07/26 00:02:23;;;;;;;;;;;;;;;16.89;65.13;98934.97;4965542;28;1451;-93
2022/07/26 00:04:49;;;;;;;;;;;;;;;16.89;65.06;98937.69;4974776;28;1300;-92
2022/07/26 00:07:15;;;;;;;;;;;;;;;16.88;65.13;98936.06;4977692;28;2071;-91
2022/07/26 00:09:42;;;;;;;;;;;;;;;16.88;64.95;98925.19;4975143;28;5399;-91
2022/07/26 00:12:08;;;;;;;;;;;;;;;16.88;65.15;98923.28;4975596;28;1359;-93
2022/07/26 00:14:35;;;;;;;;;;;;;;;16.87;65.12;98921.66;4975125;28;1293;-93
2022/07/26 00:17:01;;;;;;;;;;;;;;;16.87;65.18;98915.44;4971639;28;2340;-93
2022/07/26 00:19:27;;;;;;;;;;;;;;;16.86;64.99;98922.00;4970692;28;1723;-93
2022/07/26 00:24:34;;;;;;;;;;;;;;;16.85;65.17;98915.72;4975807;28;1707;-94
2022/07/26 00:27:00;;;;;;;;;;;;;;;16.85;65.28;98917.63;4969075;28;1553;-93
2022/07/26 00:29:27;;;;;;;;;;;;;;;16.85;65.17;98918.44;4975525;28;2068;-93
2022/07/26 00:31:53;;;;;;;;;;;;;;;16.85;65.19;98917.63;4975041;28;3655;-93
2022/07/26 00:34:19;;;;;;;;;;;;;;;16.83;65.12;98917.94;4974294;28;2210;-94
2022/07/26 00:36:46;;;;;;;;;;;;;;;16.83;65.23;98914.44;4975164;28;2633;-94
2022/07/26 00:39:12;;;;;;;;;;;;;;;16.83;65.17;98915.25;4971766;28;2157;-91
2022/07/26 00:41:39;;;;;;;;;;;;;;;16.83;65.13;98909.78;4987627;28;2132;-92
2022/07/26 00:44:05;;;;;;;;;;;;;;;16.82;65.15;98910.09;4979096;28;2130;-93
2022/07/26 00:46:31;;;;;;;;;;;;;;;16.82;65.41;98910.88;4970361;28;2407;-93
2022/07/26 00:48:58;;;;;;;;;;;;;;;16.82;65.17;98907.38;4976064;28;2155;-94
2022/07/26 00:51:25;;;;;;;;;;;;;;;16.80;65.18;98908.47;4975573;28;2558;-93
2022/07/26 00:53:51;;;;;;;;;;;;;;;16.81;65.25;98903.84;4975608;28;2574;-92
2022/07/26 00:56:17;;;;;;;;;;;;;;;16.80;65.17;98902.25;4975162;28;2083;-92
2022/07/26 00:58:44;;;;;;;;;;;;;;;16.81;65.12;98903.84;4973592;28;2079;-92
2022/07/26 01:01:10;;;;;;;;;;;;;;;16.79;65.15;98893.28;4975750;28;2107;-92
2022/07/26 01:03:36;;;;;;;;;;;;;;;16.80;65.20;98899.53;4970434;28;2087;-92
2022/07/26 01:06:03;;;;;;;;;;;;;;;16.79;65.24;98906.06;4977215;28;2178;-92
2022/07/26 01:08:29;;;;;;;;;;;;;;;16.78;65.13;98897.09;4978569;28;2044;-93
2022/07/26 01:10:56;;;;;;;;;;;;;;;16.78;65.10;98894.38;4979561;28;2107;-93
2022/07/26 01:13:22;;;;;;;;;;;;;;;16.78;65.20;98897.09;4980415;28;2091;-92
2022/07/26 01:15:48;;;;;;;;;;;;;;;16.79;65.32;98887.03;4979366;28;1948;-93
2022/07/26 01:18:15;;;;;;;;;;;;;;;16.77;65.22;98890.06;4980671;28;2037;-92
2022/07/26 01:20:41;;;;;;;;;;;;;;;16.77;65.29;98873.75;4976305;28;2500;-93
2022/07/26 01:23:08;;;;;;;;;;;;;;;16.78;65.21;98872.63;4979966;28;2154;-93
2022/07/26 01:25:34;;;;;;;;;;;;;;;16.79;65.29;98871.53;4991087;28;1889;-91
2022/07/26 01:28:00;;;;;;;;;;;;;;;16.78;65.20;98874.53;4993588;28;2044;-93
2022/07/26 01:30:27;;;;;;;;;;;;;;;16.76;65.21;98869.41;4986878;28;2208;-92
2022/07/26 01:32:53;;;;;;;;;;;;;;;16.77;65.24;98867.50;4978456;28;2511;-92
2022/07/26 01:35:19;;;;;;;;;;;;;;;16.76;65.23;98869.41;4974514;28;1209;-92
2022/07/26 01:37:46;;;;;;;;;;;;;;;16.76;65.23;98871.31;4977515;28;1906;-93
2022/07/26 01:40:13;;;;;;;;;;;;;;;16.76;65.20;98865.88;4987530;28;2125;-92
2022/07/26 01:42:39;;;;;;;;;;;;;;;16.75;65.13;98872.41;4979029;28;1971;-93
2022/07/26 01:45:06;;;;;;;;;;;;;;;16.76;65.16;98879.47;4975020;28;1801;-90
2022/07/26 01:47:32;;;;;;;;;;;;;;;16.74;65.28;98870.78;4979083;28;1541;-93
2022/07/26 01:49:59;;;;;;;;;;;;;;;16.76;65.28;98868.59;4985783;28;2043;-93
2022/07/26 01:52:25;;;;;;;;;;;;;;;16.74;65.06;98868.06;4981069;28;1314;-93
2022/07/26 01:54:51;;;;;;;;;;;;;;;16.73;65.15;98867.25;4978343;28;1335;-93
2022/07/26 01:57:18;;;;;;;;;;;;;;;16.72;65.25;98862.94;4961405;28;1927;-93
2022/07/26 01:59:44;;;;;;;;;;;;;;;16.73;65.34;98869.16;4974335;28;1861;-92
2022/07/26 02:02:10;;;;;;;;;;;;;;;16.72;65.24;98867.56;4980540;28;1225;-94
2022/07/26 02:07:21;;;;;;;;;;;;;;;16.72;65.30;98867.56;4983063;28;1307;-92
2022/07/26 02:09:47;;;;;;;;;;;;;;;16.71;65.31;98865.97;4986156;28;1419;-94
2022/07/26 02:12:13;;;;;;;;;;;;;;;16.70;65.34;98870.56;4987146;28;1980;-94
2022/07/26 02:14:40;;;;;;;;;;;;;;;16.69;65.38;98863.53;5002887;28;1397;-94
2022/07/26 02:17:06;;;;;;;;;;;;;;;16.69;65.21;98860.81;4980638;28;1907;-93
2022/07/26 02:19:32;;;;;;;;;;;;;;;16.68;65.32;98856.50;4979181;28;2106;-93
2022/07/26 02:21:59;;;;;;;;;;;;;;;16.69;65.23;98857.28;4982722;28;5620;-93
2022/07/26 02:24:27;;;;;;;;;;;;;;;16.69;65.20;98854.56;4978713;28;5963;-92
2022/07/26 02:26:53;;;;;;;;;;;;;;;16.68;65.32;98863.84;4976750;28;1194;-93
2022/07/26 02:29:20;;;;;;;;;;;;;;;16.67;65.32;98854.88;4976935;28;5617;-93
2022/07/26 02:31:46;;;;;;;;;;;;;;;16.67;65.29;98856.78;4970639;28;1240;-94
2022/07/26 02:34:12;;;;;;;;;;;;;;;16.66;65.37;98857.91;4966739;28;1581;-92
2022/07/26 02:36:39;;;;;;;;;;;;;;;16.66;65.24;98857.91;4973726;28;2029;-94
2022/07/26 02:39:05;;;;;;;;;;;;;;;16.66;65.32;98853.25;4975899;28;1762;-94
2022/07/26 02:41:32;;;;;;;;;;;;;;;16.65;65.29;98848.94;4981516;28;5449;-94
2022/07/26 02:43:58;;;;;;;;;;;;;;;16.65;65.35;98856.25;4979635;28;1368;-92
2022/07/26 02:46:24;;;;;;;;;;;;;;;16.65;65.28;98851.66;4976457;28;1520;-93
2022/07/26 02:48:51;;;;;;;;;;;;;;;16.64;65.19;98851.94;4961011;28;1245;-93
2022/07/26 02:51:17;;;;;;;;;;;;;;;16.64;65.28;98855.47;4971892;28;1495;-94
2022/07/26 02:53:44;;;;;;;;;;;;;;;16.63;65.26;98856.59;4968434;28;2935;-94
2022/07/26 02:56:10;;;;;;;;;;;;;;;16.64;65.20;98851.94;4977575;28;1849;-94
2022/07/26 02:58:36;;;;;;;;;;;;;;;16.62;65.29;98844.13;4989202;28;1914;-92
2022/07/26 03:01:03;;;;;;;;;;;;;;;16.61;65.27;98850.63;4982545;28;3590;-94
2022/07/26 03:03:29;;;;;;;;;;;;;;;16.61;65.26;98847.91;4979103;28;3718;-94
2022/07/26 03:05:56;;;;;;;;;;;;;;;16.60;65.23;98840.88;4979213;28;2091;-94
2022/07/26 03:08:22;;;;;;;;;;;;;;;16.61;65.21;98838.97;4977950;28;3005;-94
2022/07/26 03:10:49;;;;;;;;;;;;;;;16.60;65.26;98840.09;4977486;28;2075;-94
2022/07/26 03:13:15;;;;;;;;;;;;;;;16.60;65.24;98837.38;4994032;28;1341;-93
2022/07/26 03:15:41;;;;;;;;;;;;;;;16.59;65.27;98831.13;4979356;28;1278;-93
2022/07/26 03:18:08;;;;;;;;;;;;;;;16.58;65.25;98841.16;4992150;28;1891;-92
2022/07/26 03:20:34;;;;;;;;;;;;;;;16.59;65.28;98844.72;4980251;28;3000;-93
2022/07/26 03:23:00;;;;;;;;;;;;;;;16.58;65.26;98848.53;4973232;28;1465;-93
2022/07/26 03:25:27;;;;;;;;;;;;;;;16.57;65.20;98842.28;4978885;28;1185;-93
2022/07/26 03:27:53;;;;;;;;;;;;;;;16.56;65.17;98840.69;4982943;28;1420;-94
2022/07/26 03:30:20;;;;;;;;;;;;;;;16.57;65.18;98841.47;4979874;28;1201;-93
2022/07/26 03:32:46;;;;;;;;;;;;;;;16.55;65.33;98843.69;4987452;28;1278;-94
2022/07/26 03:35:12;;;;;;;;;;;;;;;16.54;65.16;98842.88;4974527;28;2171;-94
2022/07/26 03:37:39;;;;;;;;;;;;;;;16.55;65.24;98840.97;4978688;28;1981;-93
2022/07/26 03:40:06;;;;;;;;;;;;;;;16.53;65.21;98844.00;4975200;28;1543;-93
2022/07/26 03:42:32;;;;;;;;;;;;;;;16.53;65.30;98859.47;4971030;28;1949;-95
2022/07/26 03:44:59;;;;;;;;;;;;;;;16.52;65.31;98845.09;4989055;28;1793;-94
2022/07/26 03:47:25;;;;;;;;;;;;;;;16.52;65.26;98855.97;4979430;28;2020;-92
2022/07/26 03:49:52;;;;;;;;;;;;;;;16.51;65.27;98859.78;4977902;28;1522;-93
2022/07/26 03:52:18;;;;;;;;;;;;;;;16.52;65.35;98849.72;4979320;28;1243;-93
2022/07/26 03:54:44;;;;;;;;;;;;;;;16.51;65.28;98853.56;4988689;28;1248;-94
2022/07/26 03:57:10;;;;;;;;;;;;;;;16.52;65.25;98855.16;4988840;28;1903;-92
2022/07/26 03:59:36;;;;;;;;;;;;;;;16.50;65.29;98854.63;4977793;28;1510;-92
2022/07/26 04:02:02;;;;;;;;;;;;;;;16.50;65.29;98843.78;4978084;28;1943;-93
2022/07/26 04:04:29;;;;;;;;;;;;;;;16.49;65.38;98851.13;4977992;28;1879;-94
2022/07/26 04:06:56;;;;;;;;;;;;;;;16.48;65.26;98852.25;4972870;28;1345;-94
2022/07/26 04:09:22;;;;;;;;;;;;;;;16.47;65.29;98856.06;4976099;28;1487;-94
2022/07/26 04:11:49;;;;;;;;;;;;;;;16.46;65.26;98850.94;4986808;28;1275;-94
2022/07/26 04:14:16;;;;;;;;;;;;;;;16.48;65.25;98854.16;4990212;28;1360;-94
2022/07/26 04:16:42;;;;;;;;;;;;;;;16.46;65.30;98848.22;4977383;28;2051;-94
2022/07/26 04:19:09;;;;;;;;;;;;;;;16.46;65.32;98853.63;4978439;28;1776;-94
2022/07/26 04:21:35;;;;;;;;;;;;;;;16.45;65.38;98850.13;4979065;28;1631;-91
2022/07/26 04:24:01;;;;;;;;;;;;;;;16.45;65.30;98852.84;4988211;28;1207;-95
2022/07/26 04:26:28;;;;;;;;;;;;;;;16.45;65.28;98847.41;4983608;28;1637;-94
2022/07/26 04:28:55;;;;;;;;;;;;;;;16.45;65.17;98852.03;5015180;28;1197;-94
2022/07/26 04:31:21;;;;;;;;;;;;;;;16.45;65.17;98852.84;4991753;28;1285;-94
2022/07/26 04:33:48;;;;;;;;;;;;;;;16.44;65.30;98850.41;4980619;28;2141;-94
2022/07/26 04:36:14;;;;;;;;;;;;;;;16.43;65.31;98848.81;4982114;28;1424;-92
2022/07/26 04:38:41;;;;;;;;;;;;;;;16.42;65.20;98847.22;4980877;28;1960;-93
2022/07/26 04:41:07;;;;;;;;;;;;;;;16.41;65.20;98851.81;4981707;28;1222;-93
2022/07/26 04:43:33;;;;;;;;;;;;;;;16.40;65.23;98852.13;4997731;28;1142;-93
2022/07/26 04:46:00;;;;;;;;;;;;;;;16.42;65.38;98856.16;4985073;28;1986;-93
2022/07/26 04:48:26;;;;;;;;;;;;;;;16.42;65.21;98852.63;4978862;28;1227;-93
2022/07/26 04:50:53;;;;;;;;;;;;;;;16.40;65.16;98850.22;5001926;28;1584;-93
2022/07/26 04:53:19;;;;;;;;;;;;;;;16.42;65.27;98855.34;4988205;28;5616;-94
2022/07/26 04:55:46;;;;;;;;;;;;;;;16.39;65.31;98856.75;4979559;28;5414;-94
2022/07/26 04:58:13;;;;;;;;;;;;;;;16.40;65.25;98849.41;4996841;28;1906;-95
2022/07/26 05:00:39;;;;;;;;;;;;;;;16.39;65.24;98856.75;4968998;28;1340;-93
2022/07/26 05:03:06;;;;;;;;;;;;;;;16.39;65.21;98856.75;4982122;28;1325;-94
2022/07/26 05:05:32;;;;;;;;;;;;;;;16.40;65.17;98855.63;4975178;28;2107;-93
2022/07/26 05:07:58;;;;;;;;;;;;;;;16.41;65.12;98857.25;4979207;28;1582;-94
2022/07/26 05:10:25;;;;;;;;;;;;;;;16.40;65.14;98863.00;4986251;28;1764;-93
2022/07/26 05:12:51;;;;;;;;;;;;;;;16.39;65.11;98856.75;4980776;28;1602;-93
2022/07/26 05:15:18;;;;;;;;;;;;;;;16.39;65.09;98856.75;4979675;28;1459;-94
2022/07/26 05:17:44;;;;;;;;;;;;;;;16.39;64.99;98858.66;4976530;28;1976;-93
2022/07/26 05:20:10;;;;;;;;;;;;;;;16.39;65.09;98854.03;4974303;28;1345;-93
2022/07/26 05:22:37;;;;;;;;;;;;;;;16.39;65.04;98858.66;4974699;28;2937;-93
2022/07/26 05:25:03;;;;;;;;;;;;;;;16.37;65.06;98856.25;4990075;28;1754;-94
2022/07/26 05:27:30;;;;;;;;;;;;;;;16.38;65.06;98857.84;4987407;28;1555;-94
2022/07/26 05:29:56;;;;;;;;;;;;;;;16.38;65.01;98857.03;5002349;28;1931;-93
2022/07/26 05:32:22;;;;;;;;;;;;;;;16.38;65.01;98866.00;4979628;28;3433;-93
2022/07/26 05:34:49;;;;;;;;;;;;;;;16.37;64.99;98864.38;4981303;28;1975;-93
2022/07/26 05:37:15;;;;;;;;;;;;;;;16.37;65.00;98858.16;4982649;28;2900;-93
2022/07/26 05:39:41;;;;;;;;;;;;;;;16.37;64.90;98861.66;4982590;28;1231;-94
2022/07/26 05:42:08;;;;;;;;;;;;;;;16.37;65.00;98864.38;4982506;28;2391;-94
2022/07/26 05:44:34;;;;;;;;;;;;;;;16.37;64.99;98869.03;4981005;28;1198;-92
2022/07/26 05:47:01;;;;;;;;;;;;;;;16.38;64.98;98862.47;4991826;28;1175;-95
2022/07/26 05:49:27;;;;;;;;;;;;;;;16.38;64.97;98865.19;4994277;28;2668;-94
2022/07/26 05:51:53;;;;;;;;;;;;;;;16.38;64.84;98862.47;4991049;28;1674;-94
2022/07/26 05:54:20;;;;;;;;;;;;;;;16.39;64.94;98861.38;4987461;28;1536;-94
2022/07/26 05:56:46;;;;;;;;;;;;;;;16.38;64.88;98863.28;4993703;28;1210;-93
2022/07/26 05:59:13;;;;;;;;;;;;;;;16.39;64.92;98866.81;4991008;28;1982;-94
2022/07/26 06:01:39;;;;;;;;;;;;;;;16.38;64.92;98870.63;4983463;28;1904;-94
2022/07/26 06:04:07;;;;;;;;;;;;;;;16.38;64.81;98870.63;4988719;28;1350;-94
2022/07/26 06:06:34;;;;;;;;;;;;;;;16.38;64.74;98876.06;4995467;28;1261;-93
2022/07/26 06:09:00;;;;;;;;;;;;;;;16.37;64.79;98875.25;4991189;28;1921;-93
2022/07/26 06:11:27;;;;;;;;;;;;;;;16.38;64.91;98884.22;4977639;28;1618;-94
2022/07/26 06:13:53;;;;;;;;;;;;;;;16.39;64.82;98885.84;4981897;28;1243;-94
2022/07/26 06:16:20;;;;;;;;;;;;;;;16.39;64.81;98874.97;4981180;28;1817;-94
2022/07/26 06:18:46;;;;;;;;;;;;;;;16.38;64.72;98879.56;4980507;28;2002;-94
2022/07/26 06:21:13;;;;;;;;;;;;;;;16.39;64.75;98875.78;4982761;28;1311;-94
2022/07/26 06:23:39;;;;;;;;;;;;;;;16.40;64.68;98871.13;4983076;28;1178;-94
2022/07/26 06:26:05;;;;;;;;;;;;;;;16.40;64.68;98890.16;5001553;28;1324;-95
2022/07/26 06:28:32;;;;;;;;;;;;;;;16.40;64.79;98890.97;4986641;28;2145;-95
2022/07/26 06:30:59;;;;;;;;;;;;;;;16.41;64.63;98892.56;4986896;28;1717;-94
2022/07/26 06:33:25;;;;;;;;;;;;;;;16.40;64.64;98899.09;4996270;28;1340;-94
2022/07/26 06:35:52;;;;;;;;;;;;;;;16.41;64.57;98895.28;4982271;28;1743;-92
2022/07/26 06:38:18;;;;;;;;;;;;;;;16.41;64.58;98892.56;4981868;28;1906;-93
2022/07/26 06:40:44;;;;;;;;;;;;;;;16.41;64.58;98903.44;4981238;28;1727;-94
2022/07/26 06:43:11;;;;;;;;;;;;;;;16.42;64.67;98893.41;4985164;28;1748;-93
2022/07/26 06:45:37;;;;;;;;;;;;;;;16.42;64.52;98905.06;4987733;28;1263;-95
2022/07/26 06:48:04;;;;;;;;;;;;;;;16.42;64.55;98901.53;4994618;28;1288;-93
2022/07/26 06:50:30;;;;;;;;;;;;;;;16.42;64.72;98893.41;4980832;28;1623;-93
2022/07/26 06:52:56;;;;;;;;;;;;;;;16.42;64.61;98898.81;4993320;28;1201;-93
2022/07/26 06:55:23;;;;;;;;;;;;;;;16.42;64.52;98899.63;4979419;28;2174;-94
2022/07/26 06:57:49;;;;;;;;;;;;;;;16.43;64.56;98898.50;4983355;28;2186;-94
2022/07/26 07:00:16;;;;;;;;;;;;;;;16.42;64.42;98902.34;4974227;28;2541;-93
2022/07/26 07:02:43;;;;;;;;;;;;;;;16.43;64.58;98905.88;4967689;28;2241;-94
2022/07/26 07:05:10;;;;;;;;;;;;;;;16.43;64.56;98905.88;4995944;28;1280;-94
2022/07/26 07:07:36;;;;;;;;;;;;;;;16.43;64.61;98908.59;4988376;28;1179;-94
2022/07/26 07:10:03;;;;;;;;;;;;;;;16.44;64.58;98907.47;4981519;28;2128;-94
2022/07/26 07:12:30;;;;;;;;;;;;;;;16.44;64.62;98912.91;4969693;28;1493;-94
2022/07/26 07:14:56;;;;;;;;;;;;;;;16.44;64.59;98915.63;4982319;28;1227;-95
2022/07/26 07:17:22;;;;;;;;;;;;;;;16.43;64.46;98911.28;4977255;28;2145;-92
2022/07/26 07:19:49;;;;;;;;;;;;;;;16.43;64.54;98908.59;4990089;28;2459;-93
2022/07/26 07:22:16;;;;;;;;;;;;;;;16.42;64.49;98907.78;4973777;28;3093;-93
2022/07/26 07:24:43;;;;;;;;;;;;;;;16.43;64.46;98909.38;4978200;28;5982;-94
2022/07/26 07:27:09;;;;;;;;;;;;;;;16.43;64.33;98908.59;4976469;28;1366;-93
2022/07/26 07:29:35;;;;;;;;;;;;;;;16.44;64.54;98910.19;5000148;28;1749;-95
2022/07/26 07:32:02;;;;;;;;;;;;;;;16.44;64.39;98910.19;4988421;28;1364;-94
2022/07/26 07:34:28;;;;;;;;;;;;;;;16.44;64.45;98915.63;4963774;28;2083;-94
2022/07/26 07:36:55;;;;;;;;;;;;;;;16.44;64.47;98918.34;4978519;28;2436;-92
2022/07/26 07:39:21;;;;;;;;;;;;;;;16.45;64.48;98922.69;4975835;28;2044;-94
2022/07/26 07:41:48;;;;;;;;;;;;;;;16.45;64.47;98928.13;4975395;28;5427;-92
2022/07/26 07:44:14;;;;;;;;;;;;;;;16.45;64.42;98922.69;4974666;28;2229;-92
2022/07/26 07:46:40;;;;;;;;;;;;;;;16.45;64.53;98933.56;4975458;28;2471;-95
2022/07/26 07:49:07;;;;;;;;;;;;;;;16.45;64.50;98928.13;4977644;28;2236;-93
2022/07/26 07:51:33;;;;;;;;;;;;;;;16.45;64.45;98919.97;4979985;28;2015;-94
2022/07/26 07:53:59;;;;;;;;;;;;;;;16.45;64.53;98928.13;4980646;28;2792;-93
2022/07/26 07:56:26;;;;;;;;;;;;;;;16.45;64.52;98930.84;4980606;28;1987;-94
2022/07/26 07:58:52;;;;;;;;;;;;;;;16.45;64.53;98934.34;4978268;28;2047;-95
2022/07/26 08:01:18;;;;;;;;;;;;;;;16.45;64.58;98931.63;4972336;28;2515;-94
2022/07/26 08:03:45;;;;;;;;;;;;;;;16.46;64.60;98929.72;4978953;28;3844;-94
2022/07/26 08:06:11;;;;;;;;;;;;;;;16.45;64.62;98928.91;4984926;28;1249;-94
2022/07/26 08:08:38;;;;;;;;;;;;;;;16.46;64.61;98925.09;4980404;28;3758;-92
2022/07/26 08:11:04;;;;;;;;;;;;;;;16.47;64.64;98936.75;4964703;28;1673;-94
2022/07/26 08:13:30;;;;;;;;;;;;;;;16.46;64.70;98935.16;4970356;28;1449;-94
2022/07/26 08:15:57;;;;;;;;;;;;;;;16.46;64.61;98940.59;4981275;28;1685;-93
2022/07/26 08:18:23;;;;;;;;;;;;;;;16.47;64.67;98939.47;4980769;28;2005;-93
2022/07/26 08:20:50;;;;;;;;;;;;;;;16.47;64.65;98934.03;4982420;28;2981;-92
2022/07/26 08:23:16;;;;;;;;;;;;;;;16.47;64.71;98948.47;4982823;28;1588;-95
2022/07/26 08:25:42;;;;;;;;;;;;;;;16.47;64.70;98944.91;4982476;28;1198;-94
2022/07/26 08:28:09;;;;;;;;;;;;;;;16.46;64.72;98935.97;4990319;28;1251;-94
2022/07/26 08:30:35;;;;;;;;;;;;;;;16.46;64.73;98944.09;4994726;28;1266;-94
2022/07/26 08:33:01;;;;;;;;;;;;;;;16.47;64.70;98947.63;4989772;28;1213;-93
2022/07/26 08:35:29;;;;;;;;;;;;;;;16.46;64.67;98935.97;4994103;28;1290;-93
2022/07/26 08:37:55;;;;;;;;;;;;;;;16.47;64.77;98940.31;4988653;28;1907;-93
2022/07/26 08:40:21;;;;;;;;;;;;;;;16.47;64.88;98948.47;4988622;28;1176;-94
2022/07/26 08:42:48;;;;;;;;;;;;;;;16.47;64.84;98948.47;4987299;28;2017;-95
2022/07/26 08:45:14;;;;;;;;;;;;;;;16.48;64.78;98943.81;4982294;28;1956;-93
2022/07/26 08:47:41;;;;;;;;;;;;;;;16.48;64.93;98949.25;4990994;28;1191;-94
2022/07/26 08:50:07;;;;;;;;;;;;;;;16.48;64.93;98951.97;4994473;28;1158;-94
2022/07/26 08:52:33;;;;;;;;;;;;;;;16.47;64.95;98942.19;4983051;28;1328;-94
2022/07/26 08:55:00;;;;;;;;;;;;;;;16.47;65.00;98945.75;4990962;28;1192;-92
2022/07/26 08:57:26;;;;;;;;;;;;;;;16.47;64.95;98943.03;4993790;28;1194;-94
2022/07/26 08:59:53;;;;;;;;;;;;;;;16.46;64.99;98944.09;4989493;28;1963;-94
2022/07/26 09:02:19;;;;;;;;;;;;;;;16.47;64.95;98950.34;4999808;28;1600;-93
2022/07/26 09:04:46;;;;;;;;;;;;;;;16.46;64.88;98954.97;4981947;28;1296;-94
2022/07/26 09:07:12;;;;;;;;;;;;;;;16.48;65.00;98954.69;4982294;28;1162;-94
2022/07/26 09:09:39;;;;;;;;;;;;;;;16.46;64.98;98946.81;4974623;28;1769;-94
2022/07/26 09:12:05;;;;;;;;;;;;;;;16.47;65.15;98953.06;4967585;28;2116;-93
2022/07/26 09:14:31;;;;;;;;;;;;;;;16.46;65.07;98960.41;4991466;28;1192;-93
2022/07/26 09:16:58;;;;;;;;;;;;;;;16.47;65.12;98962.03;4993779;28;1308;-94
2022/07/26 09:19:25;;;;;;;;;;;;;;;16.48;64.92;98962.84;4983251;28;1971;-94
2022/07/26 09:21:51;;;;;;;;;;;;;;;16.47;65.10;98958.50;4982018;28;1255;-94
2022/07/26 09:24:18;;;;;;;;;;;;;;;16.48;65.24;98957.41;4988839;28;1179;-94
2022/07/26 09:26:44;;;;;;;;;;;;;;;16.49;65.16;98962.53;5000639;28;1264;-92
2022/07/26 09:29:10;;;;;;;;;;;;;;;16.48;65.18;98960.13;4993696;28;1220;-93
2022/07/26 09:31:37;;;;;;;;;;;;;;;16.48;65.11;98958.22;4981052;28;1670;-93
2022/07/26 09:34:03;;;;;;;;;;;;;;;16.49;65.21;98961.72;4981012;28;1296;-93
2022/07/26 09:36:30;;;;;;;;;;;;;;;16.48;65.28;98960.94;4989568;28;1175;-94
2022/07/26 09:38:57;;;;;;;;;;;;;;;16.49;65.13;98961.72;4992673;28;1962;-93
2022/07/26 09:41:23;;;;;;;;;;;;;;;16.50;65.11;98966.06;4979166;28;2101;-93
2022/07/26 09:43:50;;;;;;;;;;;;;;;16.49;65.26;98970.69;4978374;28;2012;-93
2022/07/26 09:46:16;;;;;;;;;;;;;;;16.50;65.20;98968.78;4981873;28;1217;-94
2022/07/26 09:48:43;;;;;;;;;;;;;;;16.50;65.21;98966.88;4991246;28;1159;-94
2022/07/26 09:51:09;;;;;;;;;;;;;;;16.52;64.99;98969.28;4985632;28;1259;-92
2022/07/26 09:53:35;;;;;;;;;;;;;;;16.51;65.23;98973.91;4983561;28;5446;-94
2022/07/26 09:56:02;;;;;;;;;;;;;;;16.52;65.15;98978.25;4977911;28;5455;-94
2022/07/26 09:58:28;;;;;;;;;;;;;;;16.51;65.12;98978.56;4971266;28;1886;-94
2022/07/26 10:00:54;;;;;;;;;;;;;;;16.52;65.20;98982.88;4977024;28;1550;-93
2022/07/26 10:03:21;;;;;;;;;;;;;;;16.52;65.19;98986.41;4972996;28;1435;-92
2022/07/26 10:05:48;;;;;;;;;;;;;;;16.52;65.30;98980.97;4982261;28;1983;-93
2022/07/26 10:08:14;;;;;;;;;;;;;;;16.52;65.14;98980.16;4962485;28;1594;-92
2022/07/26 10:10:40;;;;;;;;;;;;;;;16.52;65.35;98982.88;4969342;28;5258;-92
2022/07/26 10:13:07;;;;;;;;;;;;;;;16.52;65.22;98982.88;4973944;28;1197;-94
2022/07/26 10:15:33;;;;;;;;;;;;;;;16.52;65.32;98983.69;4977396;28;1631;-93
2022/07/26 10:17:59;;;;;;;;;;;;;;;16.53;65.41;98988.03;4979966;28;1250;-93
2022/07/26 10:20:26;;;;;;;;;;;;;;;16.54;65.24;98986.13;4972367;28;1903;-93
2022/07/26 10:22:52;;;;;;;;;;;;;;;16.55;65.16;98990.44;4972254;28;2594;-93
2022/07/26 10:25:19;;;;;;;;;;;;;;;16.54;65.36;98983.41;4983195;28;2117;-94
2022/07/26 10:27:45;;;;;;;;;;;;;;;16.54;65.27;98981.47;4980481;28;1261;-94
2022/07/26 10:30:11;;;;;;;;;;;;;;;16.54;65.27;98983.41;4991292;28;1975;-92
2022/07/26 10:32:38;;;;;;;;;;;;;;;16.53;65.32;98984.47;4965950;28;3447;-94
2022/07/26 10:35:04;;;;;;;;;;;;;;;16.54;65.42;98981.47;4978464;28;2051;-93
2022/07/26 10:37:30;;;;;;;;;;;;;;;16.54;65.29;98978.75;4976875;28;2599;-93
2022/07/26 10:39:57;;;;;;;;;;;;;;;16.55;65.36;98982.28;4980461;28;1906;-92
2022/07/26 10:42:23;;;;;;;;;;;;;;;16.55;65.23;98985.78;4975396;28;2064;-93
2022/07/26 10:44:49;;;;;;;;;;;;;;;16.55;65.15;98985.00;4968591;28;1372;-93
2022/07/26 10:47:17;;;;;;;;;;;;;;;16.56;65.26;98987.44;4988168;28;1382;-93
2022/07/26 10:49:44;;;;;;;;;;;;;;;16.56;65.31;98992.06;4989941;28;2923;-93
2022/07/26 10:52:10;;;;;;;;;;;;;;;16.57;65.31;98988.22;4998978;28;1301;-94
2022/07/26 10:54:36;;;;;;;;;;;;;;;16.57;65.38;98997.19;5000244;28;1275;-94
2022/07/26 10:57:03;;;;;;;;;;;;;;;16.57;65.32;98990.94;4998135;28;1173;-94
2022/07/26 10:59:29;;;;;;;;;;;;;;;16.58;65.34;98993.34;4990218;28;1914;-94
2022/07/26 11:01:55;;;;;;;;;;;;;;;16.58;65.43;98990.63;4988464;28;1343;-93
2022/07/26 11:04:22;;;;;;;;;;;;;;;16.58;65.40;98993.34;4989659;28;1694;-94
2022/07/26 11:06:48;;;;;;;;;;;;;;;16.60;65.52;98995.78;4978563;28;2276;-93
2022/07/26 11:09:17;;;;;;;;;;;;;;;16.60;65.41;98995.78;4978518;28;1479;-93
2022/07/26 11:11:44;;;;;;;;;;;;;;;16.60;65.47;98998.50;4980159;28;1182;-93
2022/07/26 11:14:10;;;;;;;;;;;;;;;16.60;65.43;99003.94;4980229;28;1370;-92
2022/07/26 11:16:37;;;;;;;;;;;;;;;16.61;65.41;99002.84;4979856;28;1301;-94
2022/07/26 11:19:03;;;;;;;;;;;;;;;16.62;65.41;98998.19;4979375;28;1910;-93
2022/07/26 11:21:29;;;;;;;;;;;;;;;16.62;65.50;99001.75;4988701;28;1194;-94
2022/07/26 11:23:56;;;;;;;;;;;;;;;16.62;65.50;99000.91;4989519;28;1169;-95
2022/07/26 11:26:23;;;;;;;;;;;;;;;16.63;65.51;99005.25;4988614;28;1185;-94
2022/07/26 11:28:49;;;;;;;;;;;;;;;16.64;65.54;99004.94;4989470;28;1237;-93
2022/07/26 11:31:15;;;;;;;;;;;;;;;16.64;65.60;99002.22;4981274;28;1645;-93
2022/07/26 11:33:42;;;;;;;;;;;;;;;16.65;65.63;99003.03;4987521;28;1508;-92
2022/07/26 11:36:08;;;;;;;;;;;;;;;16.66;65.69;99001.94;4982191;28;2046;-92
2022/07/26 11:38:34;;;;;;;;;;;;;;;16.66;65.56;99005.47;4987659;28;2081;-93
2022/07/26 11:41:01;;;;;;;;;;;;;;;16.67;65.48;99011.72;4989334;28;1210;-94
2022/07/26 11:43:27;;;;;;;;;;;;;;;16.67;65.58;98998.91;4987317;28;1207;-95
2022/07/26 11:45:54;;;;;;;;;;;;;;;16.68;65.59;99007.91;4990863;28;1171;-94
2022/07/26 11:48:20;;;;;;;;;;;;;;;16.68;65.36;99010.63;4995136;28;1318;-94
2022/07/26 11:50:46;;;;;;;;;;;;;;;16.69;65.52;99009.50;4985910;28;1334;-94
2022/07/26 11:53:13;;;;;;;;;;;;;;;16.69;65.55;99007.59;4987769;28;1182;-95
2022/07/26 11:55:39;;;;;;;;;;;;;;;16.69;65.45;99007.59;4989280;28;1211;-93
2022/07/26 11:58:06;;;;;;;;;;;;;;;16.71;65.49;99012.75;4978346;28;2003;-94
2022/07/26 12:00:32;;;;;;;;;;;;;;;16.72;65.46;99009.72;4978098;28;1989;-91
2022/07/26 12:02:58;;;;;;;;;;;;;;;16.72;65.50;99011.63;4978665;28;1284;-94
2022/07/26 12:05:25;;;;;;;;;;;;;;;16.73;65.52;99015.94;4985767;28;1759;-92
2022/07/26 12:07:51;;;;;;;;;;;;;;;16.73;65.38;99007.81;4959273;28;1645;-94
2022/07/26 12:10:18;;;;;;;;;;;;;;;16.73;65.54;99003.16;4958946;28;1269;-93
2022/07/26 12:12:44;;;;;;;;;;;;;;;16.75;65.44;99005.59;4959266;28;1347;-94
2022/07/26 12:15:12;;;;;;;;;;;;;;;16.75;65.35;99008.31;4973671;28;1612;-93
2022/07/26 12:17:38;;;;;;;;;;;;;;;16.76;65.45;98996.34;4959527;28;1194;-93
2022/07/26 12:20:04;;;;;;;;;;;;;;;16.77;65.44;99003.44;4958802;28;1907;-93
2022/07/26 12:22:31;;;;;;;;;;;;;;;16.78;65.41;98994.16;4959077;28;1223;-93
2022/07/26 12:24:57;;;;;;;;;;;;;;;16.78;65.39;98999.59;4952871;28;5795;-92
2022/07/26 12:27:24;;;;;;;;;;;;;;;16.79;65.34;99001.19;4947711;28;2444;-93
2022/07/26 12:29:50;;;;;;;;;;;;;;;16.79;65.34;98991.16;4957926;28;5300;-93
2022/07/26 12:32:16;;;;;;;;;;;;;;;16.81;65.38;98996.28;4957380;28;1471;-94
2022/07/26 12:34:43;;;;;;;;;;;;;;;16.82;65.27;98994.38;4954423;28;1897;-93
2022/07/26 12:37:09;;;;;;;;;;;;;;;16.82;65.33;98991.66;4954279;28;1291;-93
2022/07/26 12:39:36;;;;;;;;;;;;;;;16.83;65.36;98993.28;4948539;28;1933;-94
2022/07/26 12:42:03;;;;;;;;;;;;;;;16.83;65.32;98990.56;4947676;29;1343;-92
2022/07/26 12:44:29;;;;;;;;;;;;;;;16.84;65.30;98987.53;4949189;28;1508;-93
2022/07/26 12:46:56;;;;;;;;;;;;;;;16.85;65.29;98982.88;4946726;29;1571;-93
2022/07/26 12:49:22;;;;;;;;;;;;;;;16.85;65.28;98983.69;4958868;28;1447;-92
2022/07/26 12:51:49;;;;;;;;;;;;;;;16.85;65.35;98988.31;4956368;29;1354;-94
2022/07/26 12:54:15;;;;;;;;;;;;;;;16.87;65.34;98986.13;4957651;28;2636;-94
2022/07/26 12:56:41;;;;;;;;;;;;;;;16.87;65.39;98981.50;4956819;28;1838;-93
2022/07/26 12:59:09;;;;;;;;;;;;;;;16.88;65.20;98987.72;4954317;28;1934;-94